Time;durP1;ratioP1;P1;durP2;ratioP2;P2;SDS_P1;SDS_P2;PMS_P1;PMS_P2;Temp;Humidity;BMP_temperature;BMP_pressure;BME280_temperature;BME280_humidity;BME280_pressure;Samples;Min_cycle;Max_cycle;Signal;HPM_P1;HPM_P2
2022/07/10 00:01:26;;;;;;;2.28;1.35;;;;;;;;;;4799305;29;20034;-63
2022/07/10 00:03:54;;;;;;;3.75;1.50;;;;;;;;;;4810293;29;20034;-63
2022/07/10 00:06:19;;;;;;;5.25;1.70;;;;;;;;;;4815522;29;20049;-65
2022/07/10 00:08:44;;;;;;;3.47;1.67;;;;;;;;;;4813520;29;20042;-63
2022/07/10 00:11:11;;;;;;;3.75;1.60;;;;;;;;;;4811987;29;20070;-62
2022/07/10 00:13:37;;;;;;;2.67;1.60;;;;;;;;;;4809983;29;20070;-61
2022/07/10 00:16:03;;;;;;;4.80;1.48;;;;;;;;;;4812761;29;20035;-62
2022/07/10 00:18:29;;;;;;;4.93;1.50;;;;;;;;;;4814197;29;20415;-61
2022/07/10 00:20:54;;;;;;;3.45;1.30;;;;;;;;;;4813845;29;20035;-61
2022/07/10 00:23:20;;;;;;;4.13;1.20;;;;;;;;;;4811988;29;20049;-60
2022/07/10 00:25:45;;;;;;;5.78;1.40;;;;;;;;;;4814566;29;20046;-61
2022/07/10 00:28:11;;;;;;;3.08;1.23;;;;;;;;;;4796023;29;20038;-64
2022/07/10 00:30:37;;;;;;;3.15;1.30;;;;;;;;;;4814262;29;20049;-63
2022/07/10 00:33:03;;;;;;;3.08;1.38;;;;;;;;;;4815849;29;20495;-63
2022/07/10 00:35:28;;;;;;;3.28;1.20;;;;;;;;;;4816126;29;20428;-63
2022/07/10 00:37:54;;;;;;;2.95;1.10;;;;;;;;;;4816460;29;20045;-62
2022/07/10 00:40:20;;;;;;;2.90;1.40;;;;;;;;;;4812292;29;20091;-63
2022/07/10 00:42:45;;;;;;;3.70;1.33;;;;;;;;;;4816550;29;20124;-63
2022/07/10 00:45:11;;;;;;;5.05;1.20;;;;;;;;;;4815796;29;20038;-64
2022/07/10 00:47:37;;;;;;;2.60;1.10;;;;;;;;;;4816196;29;20042;-63
2022/07/10 00:50:03;;;;;;;3.40;1.27;;;;;;;;;;4812822;29;20169;-62
2022/07/10 00:52:30;;;;;;;2.13;1.10;;;;;;;;;;4816414;29;20029;-65
2022/07/10 00:54:56;;;;;;;5.38;1.30;;;;;;;;;;4797145;29;20491;-63
2022/07/10 00:57:22;;;;;;;3.30;1.27;;;;;;;;;;4816035;29;20098;-64
2022/07/10 00:59:48;;;;;;;4.38;1.27;;;;;;;;;;4814773;29;20432;-63
2022/07/10 01:02:14;;;;;;;5.13;1.30;;;;;;;;;;4816820;29;20041;-62
2022/07/10 01:04:39;;;;;;;4.55;1.10;;;;;;;;;;4813370;29;20031;-63
2022/07/10 01:07:05;;;;;;;1.55;1.08;;;;;;;;;;4810871;29;20033;-62
2022/07/10 01:09:32;;;;;;;3.60;1.02;;;;;;;;;;4813629;29;20453;-63
2022/07/10 01:12:01;;;;;;;3.08;1.15;;;;;;;;;;4811675;29;20106;-63
2022/07/10 01:14:28;;;;;;;5.63;1.23;;;;;;;;;;4809985;29;20075;-64
2022/07/10 01:16:53;;;;;;;5.97;1.42;;;;;;;;;;4812699;29;20039;-63
2022/07/10 01:19:19;;;;;;;5.95;1.23;;;;;;;;;;4811680;29;20049;-63
2022/07/10 01:21:44;;;;;;;2.83;1.20;;;;;;;;;;4813097;29;20045;-64
2022/07/10 01:24:10;;;;;;;6.85;1.75;;;;;;;;;;4813506;29;20369;-64
2022/07/10 01:26:38;;;;;;;4.63;1.38;;;;;;;;;;4808712;29;20034;-63
2022/07/10 01:29:05;;;;;;;3.40;1.20;;;;;;;;;;4811538;29;20349;-63
2022/07/10 01:31:31;;;;;;;5.15;1.10;;;;;;;;;;4812083;29;20043;-62
2022/07/10 01:33:59;;;;;;;2.53;1.23;;;;;;;;;;4815689;29;20030;-62
2022/07/10 01:36:27;;;;;;;2.72;1.10;;;;;;;;;;4812768;29;20046;-62
2022/07/10 01:38:54;;;;;;;4.25;1.50;;;;;;;;;;4813672;29;20110;-62
2022/07/10 01:41:19;;;;;;;4.68;1.40;;;;;;;;;;4814432;29;20034;-62
2022/07/10 01:43:45;;;;;;;3.22;1.00;;;;;;;;;;4812511;29;20026;-65
2022/07/10 01:46:12;;;;;;;1.83;1.00;;;;;;;;;;4812778;29;20030;-63
2022/07/10 01:48:38;;;;;;;2.75;1.10;;;;;;;;;;4812153;29;20030;-63
2022/07/10 01:51:04;;;;;;;5.95;1.25;;;;;;;;;;4814010;29;20038;-63
2022/07/10 01:53:30;;;;;;;4.63;1.00;;;;;;;;;;4811378;29;20125;-63
2022/07/10 01:55:55;;;;;;;5.70;1.45;;;;;;;;;;4814777;29;20129;-64
2022/07/10 01:58:20;;;;;;;4.80;1.10;;;;;;;;;;4811253;29;20539;-64
2022/07/10 02:00:46;;;;;;;3.20;1.10;;;;;;;;;;4811012;29;20030;-63
2022/07/10 02:05:55;;;;;;;4.03;1.40;;;;;;;;;;4814042;29;20146;-61
2022/07/10 02:08:21;;;;;;;2.75;0.90;;;;;;;;;;4809695;29;20113;-62
2022/07/10 02:10:46;;;;;;;2.85;1.30;;;;;;;;;;4810977;29;20102;-62
2022/07/10 02:13:14;;;;;;;4.25;1.65;;;;;;;;;;4808829;29;21369;-61
2022/07/10 02:15:40;;;;;;;3.03;1.30;;;;;;;;;;4812059;29;20034;-61
2022/07/10 02:18:05;;;;;;;5.32;1.10;;;;;;;;;;4812489;29;20582;-62
2022/07/10 02:20:33;;;;;;;6.78;1.42;;;;;;;;;;4815255;29;20037;-62
2022/07/10 02:22:58;;;;;;;6.68;1.38;;;;;;;;;;4810336;29;20399;-64
2022/07/10 02:25:24;;;;;;;3.28;1.10;;;;;;;;;;4811246;29;20034;-63
2022/07/10 02:27:49;;;;;;;2.75;1.00;;;;;;;;;;4810752;29;20118;-63
2022/07/10 02:30:14;;;;;;;5.78;1.10;;;;;;;;;;4811798;29;20087;-60
2022/07/10 02:32:40;;;;;;;5.90;1.27;;;;;;;;;;4796445;29;20171;-62
2022/07/10 02:35:06;;;;;;;5.10;1.27;;;;;;;;;;4813912;29;20037;-62
2022/07/10 02:37:31;;;;;;;3.42;1.05;;;;;;;;;;4813058;29;20487;-63
2022/07/10 02:39:56;;;;;;;2.90;1.00;;;;;;;;;;4810554;29;20026;-62
2022/07/10 02:42:22;;;;;;;5.72;1.13;;;;;;;;;;4811689;29;20184;-62
2022/07/10 02:44:47;;;;;;;3.42;1.23;;;;;;;;;;4811879;29;20034;-63
2022/07/10 02:47:13;;;;;;;3.63;1.20;;;;;;;;;;4811954;29;20023;-63
2022/07/10 02:49:38;;;;;;;3.80;1.00;;;;;;;;;;4813361;29;20073;-63
2022/07/10 02:52:04;;;;;;;5.60;1.30;;;;;;;;;;4814236;29;20401;-64
2022/07/10 02:54:30;;;;;;;2.10;1.05;;;;;;;;;;4811310;29;20081;-64
2022/07/10 02:56:55;;;;;;;5.50;1.67;;;;;;;;;;4814319;29;20123;-65
2022/07/10 02:59:21;;;;;;;2.40;1.05;;;;;;;;;;4812877;29;20045;-64
2022/07/10 03:01:46;;;;;;;3.35;1.13;;;;;;;;;;4814018;29;20042;-64
2022/07/10 03:04:11;;;;;;;3.60;1.25;;;;;;;;;;4806982;29;20098;-64
2022/07/10 03:06:38;;;;;;;4.63;1.20;;;;;;;;;;4811959;29;20037;-64
2022/07/10 03:09:03;;;;;;;3.67;1.10;;;;;;;;;;4808663;29;20050;-63
2022/07/10 03:11:28;;;;;;;2.15;1.17;;;;;;;;;;4810791;29;20034;-64
2022/07/10 03:13:54;;;;;;;3.90;1.00;;;;;;;;;;4795164;29;20497;-63
2022/07/10 03:16:19;;;;;;;5.28;1.52;;;;;;;;;;4810311;29;20503;-63
2022/07/10 03:18:45;;;;;;;4.13;1.00;;;;;;;;;;4811764;29;20036;-63
2022/07/10 03:21:11;;;;;;;3.40;1.20;;;;;;;;;;4809825;29;20111;-64
2022/07/10 03:23:36;;;;;;;3.28;1.45;;;;;;;;;;4812812;29;20045;-64
2022/07/10 03:26:02;;;;;;;6.30;1.20;;;;;;;;;;4811651;29;20106;-64
2022/07/10 03:28:27;;;;;;;2.22;1.00;;;;;;;;;;4812713;29;20031;-64
2022/07/10 03:30:52;;;;;;;5.32;1.05;;;;;;;;;;4810652;29;20121;-64
2022/07/10 03:33:18;;;;;;;3.67;0.90;;;;;;;;;;4811699;29;20311;-62
2022/07/10 03:35:43;;;;;;;5.63;1.38;;;;;;;;;;4812234;29;20487;-64
2022/07/10 03:38:09;;;;;;;2.60;0.80;;;;;;;;;;4813746;29;20030;-62
2022/07/10 03:40:34;;;;;;;4.93;1.00;;;;;;;;;;4812859;29;20038;-63
2022/07/10 03:42:59;;;;;;;3.33;1.40;;;;;;;;;;4811138;29;20026;-63
2022/07/10 03:45:25;;;;;;;4.28;1.02;;;;;;;;;;4810773;29;20427;-64
2022/07/10 03:47:50;;;;;;;3.78;1.00;;;;;;;;;;4812454;29;20411;-64
2022/07/10 03:50:16;;;;;;;5.00;1.20;;;;;;;;;;4814671;29;20559;-62
2022/07/10 03:52:41;;;;;;;4.22;1.30;;;;;;;;;;4815433;29;20049;-64
2022/07/10 03:55:07;;;;;;;4.07;1.35;;;;;;;;;;4812195;29;20445;-62
2022/07/10 04:00:17;;;;;;;2.90;0.85;;;;;;;;;;4813319;29;20518;-63
2022/07/10 04:02:42;;;;;;;3.15;1.20;;;;;;;;;;4813572;29;20042;-63
2022/07/10 04:05:09;;;;;;;3.92;1.27;;;;;;;;;;4816674;29;20558;-61
2022/07/10 04:07:37;;;;;;;5.63;1.08;;;;;;;;;;4813566;29;20026;-63
2022/07/10 04:10:03;;;;;;;2.35;1.10;;;;;;;;;;4815837;29;20038;-64
2022/07/10 04:12:28;;;;;;;5.93;1.65;;;;;;;;;;4813561;29;20073;-63
2022/07/10 04:14:54;;;;;;;3.88;1.23;;;;;;;;;;4812623;29;20162;-62
2022/07/10 04:17:20;;;;;;;6.20;1.10;;;;;;;;;;4816757;29;20033;-61
2022/07/10 04:19:46;;;;;;;5.88;1.10;;;;;;;;;;4815969;29;20042;-63
2022/07/10 04:22:11;;;;;;;3.95;1.23;;;;;;;;;;4814690;29;20042;-63
2022/07/10 04:24:37;;;;;;;2.80;1.00;;;;;;;;;;4816143;29;20126;-65
2022/07/10 04:27:02;;;;;;;7.75;1.20;;;;;;;;;;4814953;29;20057;-64
2022/07/10 04:29:28;;;;;;;2.28;0.88;;;;;;;;;;4814828;29;20106;-63
2022/07/10 04:31:54;;;;;;;2.28;0.80;;;;;;;;;;4815000;29;20038;-63
2022/07/10 04:34:19;;;;;;;2.92;1.05;;;;;;;;;;4815851;29;20083;-64
2022/07/10 04:36:45;;;;;;;4.15;0.93;;;;;;;;;;4813513;29;20117;-62
2022/07/10 04:39:10;;;;;;;2.55;1.08;;;;;;;;;;4812440;29;20046;-63
2022/07/10 04:41:35;;;;;;;4.32;1.00;;;;;;;;;;4811538;29;20117;-63
2022/07/10 04:44:01;;;;;;;2.90;1.48;;;;;;;;;;4814274;29;20137;-63
2022/07/10 04:46:26;;;;;;;3.35;1.10;;;;;;;;;;4798682;29;20038;-64
2022/07/10 04:48:52;;;;;;;4.97;1.00;;;;;;;;;;4813936;29;20038;-64
2022/07/10 04:51:17;;;;;;;5.57;1.00;;;;;;;;;;4812584;29;20036;-64
2022/07/10 04:53:43;;;;;;;2.50;1.08;;;;;;;;;;4814040;29;20470;-64
2022/07/10 04:56:09;;;;;;;4.07;1.30;;;;;;;;;;4814230;29;20110;-62
2022/07/10 04:58:35;;;;;;;2.65;0.93;;;;;;;;;;4813292;29;20510;-64
2022/07/10 05:01:00;;;;;;;2.75;1.00;;;;;;;;;;4813093;29;20045;-63
2022/07/10 05:03:26;;;;;;;6.35;1.05;;;;;;;;;;4812801;29;20042;-64
2022/07/10 05:05:51;;;;;;;2.60;0.80;;;;;;;;;;4813075;29;20097;-63
2022/07/10 05:08:16;;;;;;;4.35;1.02;;;;;;;;;;4811940;29;20091;-64
2022/07/10 05:10:42;;;;;;;4.28;1.00;;;;;;;;;;4812597;29;20411;-62
2022/07/10 05:13:07;;;;;;;3.50;0.90;;;;;;;;;;4814103;29;20487;-63
2022/07/10 05:15:33;;;;;;;6.68;1.17;;;;;;;;;;4810146;29;20083;-63
2022/07/10 05:17:58;;;;;;;3.10;1.08;;;;;;;;;;4814346;29;20045;-64
2022/07/10 05:20:23;;;;;;;5.93;1.13;;;;;;;;;;4812085;29;20030;-64
2022/07/10 05:22:49;;;;;;;1.48;0.80;;;;;;;;;;4812486;29;20045;-64
2022/07/10 05:25:14;;;;;;;4.18;0.93;;;;;;;;;;4813080;29;20034;-64
2022/07/10 05:27:39;;;;;;;3.70;0.77;;;;;;;;;;4813453;29;20078;-62
2022/07/10 05:30:05;;;;;;;4.30;0.90;;;;;;;;;;4815116;29;20113;-64
2022/07/10 05:32:31;;;;;;;3.80;0.93;;;;;;;;;;4811774;29;20041;-64
2022/07/10 05:34:59;;;;;;;2.85;1.20;;;;;;;;;;4812609;29;20057;-62
2022/07/10 05:37:24;;;;;;;5.07;0.90;;;;;;;;;;4815008;29;20379;-64
2022/07/10 05:39:50;;;;;;;4.93;0.73;;;;;;;;;;4818121;29;20026;-64
2022/07/10 05:42:15;;;;;;;3.38;0.95;;;;;;;;;;4815224;29;20437;-62
2022/07/10 05:44:40;;;;;;;5.05;1.00;;;;;;;;;;4811511;29;20049;-64
2022/07/10 05:47:06;;;;;;;4.15;1.08;;;;;;;;;;4811205;29;20038;-62
2022/07/10 05:49:32;;;;;;;2.88;0.68;;;;;;;;;;4813256;29;20026;-63
2022/07/10 05:51:58;;;;;;;5.18;0.82;;;;;;;;;;4811173;29;20038;-63
2022/07/10 05:54:23;;;;;;;3.47;1.23;;;;;;;;;;4812957;29;20058;-64
2022/07/10 05:56:49;;;;;;;3.08;0.82;;;;;;;;;;4816681;29;20064;-63
2022/07/10 05:59:14;;;;;;;3.33;1.00;;;;;;;;;;4812765;29;20729;-64
2022/07/10 06:01:40;;;;;;;6.10;0.98;;;;;;;;;;4814140;29;20038;-63
2022/07/10 06:04:05;;;;;;;1.45;0.68;;;;;;;;;;4813688;29;20356;-63
2022/07/10 06:06:31;;;;;;;3.95;0.60;;;;;;;;;;4795067;29;20117;-63
2022/07/10 06:08:56;;;;;;;1.50;0.60;;;;;;;;;;4812141;29;20122;-64
2022/07/10 06:11:22;;;;;;;4.25;1.05;;;;;;;;;;4817053;29;20038;-63
2022/07/10 06:13:47;;;;;;;3.95;0.88;;;;;;;;;;4811585;29;20510;-65
2022/07/10 06:16:12;;;;;;;3.28;0.57;;;;;;;;;;4813907;29;20539;-65
2022/07/10 06:18:38;;;;;;;4.85;0.95;;;;;;;;;;4812470;29;20728;-64
2022/07/10 06:21:03;;;;;;;5.57;1.05;;;;;;;;;;4813605;29;20038;-63
2022/07/10 06:23:29;;;;;;;2.30;0.68;;;;;;;;;;4813578;29;20041;-67
2022/07/10 06:25:55;;;;;;;4.28;0.70;;;;;;;;;;4813615;29;20483;-64
2022/07/10 06:28:20;;;;;;;2.17;0.60;;;;;;;;;;4810990;29;20732;-64
2022/07/10 06:30:47;;;;;;;1.60;0.52;;;;;;;;;;4811673;29;20030;-64
2022/07/10 06:33:12;;;;;;;3.15;0.80;;;;;;;;;;4814166;29;20049;-64
2022/07/10 06:35:37;;;;;;;2.78;0.80;;;;;;;;;;4811274;29;20361;-62
2022/07/10 06:38:03;;;;;;;5.80;0.65;;;;;;;;;;4813874;29;20030;-63
2022/07/10 06:40:29;;;;;;;5.07;1.10;;;;;;;;;;4816322;29;20029;-62
2022/07/10 06:42:55;;;;;;;3.15;0.50;;;;;;;;;;4813073;29;20453;-62
2022/07/10 06:45:20;;;;;;;3.80;0.95;;;;;;;;;;4813345;29;20034;-63
2022/07/10 06:48:01;;;;;;;1.73;0.60;;;;;;;;;;4814040;29;20022;-63
2022/07/10 06:50:34;;;;;;;3.35;0.80;;;;;;;;;;4811152;29;20459;-64
2022/07/10 06:52:59;;;;;;;4.40;0.85;;;;;;;;;;4811357;29;20030;-62
2022/07/10 06:55:26;;;;;;;3.15;0.82;;;;;;;;;;4812200;29;20103;-62
2022/07/10 06:57:52;;;;;;;3.97;0.75;;;;;;;;;;4814437;29;20163;-62
2022/07/10 07:00:18;;;;;;;2.50;0.57;;;;;;;;;;4815113;29;20061;-63
2022/07/10 07:02:43;;;;;;;2.42;0.50;;;;;;;;;;4811474;29;20145;-64
2022/07/10 07:05:09;;;;;;;6.68;1.23;;;;;;;;;;4795025;29;20033;-63
2022/07/10 07:07:35;;;;;;;2.28;1.00;;;;;;;;;;4814255;29;20082;-64
2022/07/10 07:10:03;;;;;;;1.20;0.40;;;;;;;;;;4813395;29;20034;-67
2022/07/10 07:12:28;;;;;;;4.13;0.60;;;;;;;;;;4796916;29;20037;-63
2022/07/10 07:14:54;;;;;;;4.70;0.90;;;;;;;;;;4812687;29;20486;-63
2022/07/10 07:17:23;;;;;;;3.45;0.70;;;;;;;;;;4816885;29;20402;-63
2022/07/10 07:25:17;;;;;;;2.72;0.40;;;;;;;;;;4813444;29;20118;-62
2022/07/10 07:27:43;;;;;;;2.22;0.40;;;;;;;;;;4815434;29;20174;-63
2022/07/10 07:30:17;;;;;;;3.60;0.80;;;;;;;;;;4811923;29;20038;-63
2022/07/10 07:32:44;;;;;;;4.20;0.63;;;;;;;;;;4811611;29;20046;-63
2022/07/10 07:35:11;;;;;;;2.13;0.68;;;;;;;;;;4813322;29;20049;-63
2022/07/10 07:37:45;;;;;;;2.08;0.60;;;;;;;;;;4812840;29;20577;-63
2022/07/10 07:40:15;;;;;;;3.40;0.70;;;;;;;;;;4813331;29;20042;-62
2022/07/10 07:42:41;;;;;;;4.90;0.70;;;;;;;;;;4815618;29;20050;-63
2022/07/10 07:45:07;;;;;;;2.42;0.70;;;;;;;;;;4814139;29;20041;-62
2022/07/10 07:47:44;;;;;;;2.63;0.60;;;;;;;;;;4800559;29;20044;-64
2022/07/10 07:50:10;;;;;;;1.15;0.30;;;;;;;;;;4815940;29;20493;-62
2022/07/10 07:52:35;;;;;;;2.65;0.60;;;;;;;;;;4812359;29;20415;-64
2022/07/10 07:55:01;;;;;;;3.65;0.55;;;;;;;;;;4798319;29;20034;-63
2022/07/10 07:57:26;;;;;;;5.20;0.85;;;;;;;;;;4815859;29;20045;-63
2022/07/10 07:59:52;;;;;;;2.92;0.75;;;;;;;;;;4815806;29;20442;-63
2022/07/10 08:02:17;;;;;;;3.97;0.75;;;;;;;;;;4814167;29;20075;-63
2022/07/10 08:04:42;;;;;;;2.35;0.82;;;;;;;;;;4813881;29;20061;-63
2022/07/10 08:07:08;;;;;;;1.75;0.50;;;;;;;;;;4813123;29;20045;-62
2022/07/10 08:09:34;;;;;;;2.53;0.60;;;;;;;;;;4814001;29;20026;-62
2022/07/10 08:12:00;;;;;;;2.40;0.57;;;;;;;;;;4813160;29;20076;-63
2022/07/10 08:14:25;;;;;;;2.58;0.77;;;;;;;;;;4813343;29;20142;-66
2022/07/10 08:16:51;;;;;;;2.40;0.73;;;;;;;;;;4799928;29;20480;-63
2022/07/10 08:19:16;;;;;;;4.15;1.00;;;;;;;;;;4814691;29;20049;-62
2022/07/10 08:21:42;;;;;;;3.47;0.82;;;;;;;;;;4811377;29;20648;-62
2022/07/10 08:24:07;;;;;;;2.10;1.05;;;;;;;;;;4812893;29;20038;-63
2022/07/10 08:26:32;;;;;;;5.15;0.90;;;;;;;;;;4813087;29;20081;-63
2022/07/10 08:28:58;;;;;;;3.50;0.90;;;;;;;;;;4813675;29;20035;-63
2022/07/10 08:31:23;;;;;;;6.13;0.95;;;;;;;;;;4815762;29;20049;-61
2022/07/10 08:33:51;;;;;;;2.03;0.47;;;;;;;;;;4811153;29;20042;-64
2022/07/10 08:36:16;;;;;;;3.42;0.60;;;;;;;;;;4811613;29;20117;-63
2022/07/10 08:38:41;;;;;;;1.65;0.57;;;;;;;;;;4815271;29;20045;-63
2022/07/10 08:41:07;;;;;;;3.75;0.93;;;;;;;;;;4814195;29;20522;-64
2022/07/10 08:43:32;;;;;;;4.53;0.90;;;;;;;;;;4814646;29;20502;-63
2022/07/10 08:45:59;;;;;;;2.58;0.98;;;;;;;;;;4794189;29;20511;-64
2022/07/10 08:48:24;;;;;;;4.47;0.82;;;;;;;;;;4810913;29;20053;-62
2022/07/10 08:50:56;;;;;;;5.35;0.85;;;;;;;;;;4816486;29;20027;-62
2022/07/10 08:53:31;;;;;;;5.30;0.90;;;;;;;;;;4812056;29;20377;-62
2022/07/10 08:55:57;;;;;;;3.95;0.80;;;;;;;;;;4814330;29;20045;-64
2022/07/10 08:58:23;;;;;;;4.35;0.80;;;;;;;;;;4810341;29;20045;-60
2022/07/10 09:00:49;;;;;;;8.57;0.85;;;;;;;;;;4810103;29;20436;-64
2022/07/10 09:03:14;;;;;;;2.85;1.05;;;;;;;;;;4797256;29;20441;-63
2022/07/10 09:05:39;;;;;;;3.20;0.60;;;;;;;;;;4812850;29;20420;-63
2022/07/10 09:08:26;;;;;;;2.85;0.82;;;;;;;;;;4811885;29;20444;-62
2022/07/10 09:10:52;;;;;;;1.15;0.52;;;;;;;;;;4814405;29;20091;-64
2022/07/10 09:13:18;;;;;;;3.53;0.65;;;;;;;;;;4816459;29;20030;-63
2022/07/10 09:15:48;;;;;;;2.33;0.68;;;;;;;;;;4814213;29;20482;-62
2022/07/10 09:18:19;;;;;;;7.20;1.10;;;;;;;;;;4814777;29;20034;-64
2022/07/10 09:20:46;;;;;;;3.83;0.98;;;;;;;;;;4812615;29;20566;-62
2022/07/10 09:23:20;;;;;;;4.47;0.73;;;;;;;;;;4813127;29;20027;-64
2022/07/10 09:25:49;;;;;;;2.67;0.80;;;;;;;;;;4812645;29;20079;-64
2022/07/10 09:28:20;;;;;;;3.22;0.93;;;;;;;;;;4814338;29;20522;-63
2022/07/10 09:30:46;;;;;;;1.77;0.85;;;;;;;;;;4814618;29;20094;-62
2022/07/10 09:33:19;;;;;;;2.08;0.85;;;;;;;;;;4812086;29;20038;-64
2022/07/10 09:36:14;;;;;;;3.78;0.88;;;;;;;;;;4813580;29;20046;-63
2022/07/10 09:38:39;;;;;;;1.65;0.60;;;;;;;;;;4801186;29;20065;-63
2022/07/10 09:41:31;;;;;;;4.72;0.82;;;;;;;;;;4815522;29;20034;-62
2022/07/10 09:43:57;;;;;;;2.33;0.73;;;;;;;;;;4813142;29;20037;-62
2022/07/10 09:46:28;;;;;;;5.70;1.50;;;;;;;;;;4815236;29;20491;-62
2022/07/10 09:49:04;;;;;;;3.08;0.93;;;;;;;;;;4812428;29;20121;-64
2022/07/10 09:51:32;;;;;;;2.85;0.70;;;;;;;;;;4816208;29;20543;-62
2022/07/10 09:54:00;;;;;;;7.53;0.90;;;;;;;;;;4795159;29;20034;-62
2022/07/10 09:56:27;;;;;;;3.05;0.80;;;;;;;;;;4812557;29;20190;-64
2022/07/10 09:58:58;;;;;;;5.15;1.00;;;;;;;;;;4811328;29;20046;-64
2022/07/10 10:01:23;;;;;;;5.45;0.82;;;;;;;;;;4811397;29;20026;-63
2022/07/10 10:03:49;;;;;;;6.22;1.13;;;;;;;;;;4812800;29;20041;-63
2022/07/10 10:06:15;;;;;;;5.75;1.08;;;;;;;;;;4810758;29;20434;-63
2022/07/10 10:08:50;;;;;;;5.63;1.15;;;;;;;;;;4792881;29;20625;-63
2022/07/10 10:11:21;;;;;;;4.78;0.93;;;;;;;;;;4810993;29;20042;-63
2022/07/10 10:13:46;;;;;;;5.32;1.25;;;;;;;;;;4813351;29;20038;-63
2022/07/10 10:16:12;;;;;;;2.80;0.88;;;;;;;;;;4812436;29;20675;-64
2022/07/10 10:20:36;;;;;;;4.95;1.00;;;;;;;;;;4816250;29;20394;-62
2022/07/10 10:21:27;;;;;;;4.65;1.15;;;;;;;;;;4814369;29;20038;-62
2022/07/10 10:23:55;;;;;;;6.00;0.90;;;;;;;;;;4809147;29;20055;-64
2022/07/10 10:26:22;;;;;;;10.07;1.02;;;;;;;;;;4810773;29;20035;-63
2022/07/10 10:28:49;;;;;;;4.32;0.73;;;;;;;;;;4808716;29;20511;-63
2022/07/10 10:31:15;;;;;;;2.72;0.70;;;;;;;;;;4809159;29;20038;-63
2022/07/10 10:33:42;;;;;;;9.38;1.00;;;;;;;;;;4814497;29;20098;-63
2022/07/10 10:36:08;;;;;;;2.20;0.90;;;;;;;;;;4812571;29;20503;-64
2022/07/10 10:38:55;;;;;;;4.70;0.98;;;;;;;;;;4810874;29;20398;-64
2022/07/10 10:41:51;;;;;;;5.25;1.10;;;;;;;;;;4813881;29;20065;-63
2022/07/10 10:44:16;;;;;;;4.53;0.90;;;;;;;;;;4812853;29;20501;-64
2022/07/10 10:46:54;;;;;;;5.95;1.20;;;;;;;;;;4797118;29;20201;-64
2022/07/10 10:49:24;;;;;;;4.28;0.90;;;;;;;;;;4810815;29;20074;-66
2022/07/10 10:52:08;;;;;;;3.58;0.70;;;;;;;;;;4809915;29;20133;-65
2022/07/10 10:55:03;;;;;;;4.45;0.82;;;;;;;;;;4810104;29;20076;-63
2022/07/10 10:57:36;;;;;;;4.28;0.82;;;;;;;;;;4811070;29;20054;-63
2022/07/10 11:00:06;;;;;;;5.18;1.70;;;;;;;;;;4798396;29;20045;-63
2022/07/10 11:02:37;;;;;;;6.85;1.42;;;;;;;;;;4812123;29;20175;-63
2022/07/10 11:05:18;;;;;;;2.88;0.80;;;;;;;;;;4814977;29;20124;-64
2022/07/10 11:07:59;;;;;;;3.50;0.82;;;;;;;;;;4812370;29;20026;-62
2022/07/10 11:10:36;;;;;;;3.65;1.10;;;;;;;;;;4816308;29;20073;-63
2022/07/10 11:13:17;;;;;;;3.53;0.90;;;;;;;;;;4811875;29;20057;-64
2022/07/10 11:15:48;;;;;;;4.32;0.90;;;;;;;;;;4815226;29;20516;-63
2022/07/10 11:18:28;;;;;;;3.83;0.60;;;;;;;;;;4816416;29;20400;-64
2022/07/10 11:20:53;;;;;;;3.85;1.10;;;;;;;;;;4812411;29;20050;-62
2022/07/10 11:23:34;;;;;;;4.32;1.05;;;;;;;;;;4816364;29;20035;-63
2022/07/10 11:26:08;;;;;;;3.88;1.45;;;;;;;;;;4813806;29;20042;-64
2022/07/10 11:28:54;;;;;;;3.13;0.68;;;;;;;;;;4811586;29;20495;-63
2022/07/10 11:31:21;;;;;;;6.72;1.65;;;;;;;;;;4816851;29;20103;-65
2022/07/10 11:33:51;;;;;;;3.97;0.80;;;;;;;;;;4816648;29;20030;-64
2022/07/10 11:36:32;;;;;;;2.75;0.98;;;;;;;;;;4817076;29;20030;-62
2022/07/10 11:39:03;;;;;;;6.95;1.10;;;;;;;;;;4813896;29;20030;-63
2022/07/10 11:41:29;;;;;;;7.03;0.75;;;;;;;;;;4816346;29;21248;-63
2022/07/10 11:43:57;;;;;;;4.30;0.95;;;;;;;;;;4805705;29;20138;-70
2022/07/10 11:46:24;;;;;;;3.75;0.80;;;;;;;;;;4816171;29;20035;-63
2022/07/10 11:48:54;;;;;;;4.57;0.82;;;;;;;;;;4794334;29;20034;-62
2022/07/10 11:51:28;;;;;;;3.35;0.70;;;;;;;;;;4816466;29;20952;-64
2022/07/10 11:54:05;;;;;;;3.25;1.00;;;;;;;;;;4814954;29;20035;-63
2022/07/10 11:56:35;;;;;;;1.75;0.70;;;;;;;;;;4815175;29;20093;-62
2022/07/10 11:59:02;;;;;;;1.90;0.90;;;;;;;;;;4794705;29;20491;-62
2022/07/10 12:01:31;;;;;;;5.63;0.77;;;;;;;;;;4811404;29;20360;-62
2022/07/10 12:04:04;;;;;;;2.97;0.90;;;;;;;;;;4815640;29;20490;-62
2022/07/10 12:06:31;;;;;;;2.00;0.90;;;;;;;;;;4815264;29;20375;-63
2022/07/10 12:09:04;;;;;;;2.08;0.93;;;;;;;;;;4813710;29;20023;-63
2022/07/10 12:11:30;;;;;;;4.60;1.30;;;;;;;;;;4813045;29;20038;-63
2022/07/10 12:14:18;;;;;;;2.72;1.05;;;;;;;;;;4815604;29;20037;-62
2022/07/10 12:16:45;;;;;;;3.97;1.08;;;;;;;;;;4816237;29;20022;-63
2022/07/10 12:19:13;;;;;;;3.20;0.98;;;;;;;;;;4813597;29;20049;-63
2022/07/10 12:21:40;;;;;;;1.75;0.77;;;;;;;;;;4810029;29;20036;-63
2022/07/10 12:24:07;;;;;;;2.28;0.80;;;;;;;;;;4814037;29;20038;-63
2022/07/10 12:26:38;;;;;;;2.33;0.65;;;;;;;;;;4812012;29;20484;-63
2022/07/10 12:29:04;;;;;;;2.30;0.70;;;;;;;;;;4812877;29;20387;-63
2022/07/10 12:31:34;;;;;;;3.60;1.00;;;;;;;;;;4818421;29;20037;-62
2022/07/10 12:34:02;;;;;;;3.60;1.20;;;;;;;;;;4813172;29;20054;-62
2022/07/10 12:36:47;;;;;;;3.40;1.00;;;;;;;;;;4815841;29;20034;-64
2022/07/10 12:39:15;;;;;;;3.00;0.85;;;;;;;;;;4815451;29;20042;-63
2022/07/10 12:41:56;;;;;;;2.40;0.80;;;;;;;;;;4815513;29;20042;-63
2022/07/10 12:44:42;;;;;;;1.30;0.60;;;;;;;;;;4810253;29;20038;-62
2022/07/10 12:47:12;;;;;;;1.08;0.50;;;;;;;;;;4808683;29;20133;-64
2022/07/10 12:50:08;;;;;;;1.42;0.60;;;;;;;;;;4814196;29;20030;-63
2022/07/10 12:52:35;;;;;;;1.63;0.52;;;;;;;;;;4791647;29;20582;-62
2022/07/10 12:55:16;;;;;;;1.90;0.68;;;;;;;;;;4812284;29;20042;-63
2022/07/10 12:57:46;;;;;;;4.32;0.95;;;;;;;;;;4813176;29;20081;-63
2022/07/10 13:00:13;;;;;;;4.22;0.70;;;;;;;;;;4811113;29;20121;-64
2022/07/10 13:02:39;;;;;;;2.13;0.80;;;;;;;;;;4813937;29;20487;-63
2022/07/10 13:05:04;;;;;;;2.65;0.75;;;;;;;;;;4796156;29;20150;-62
2022/07/10 13:07:35;;;;;;;1.35;0.52;;;;;;;;;;4806731;29;20117;-63
2022/07/10 13:10:05;;;;;;;2.20;0.50;;;;;;;;;;4811631;29;20039;-64
2022/07/10 13:12:32;;;;;;;3.92;1.05;;;;;;;;;;4812938;29;20035;-63
2022/07/10 13:14:57;;;;;;;2.80;0.98;;;;;;;;;;4806472;29;20041;-63
2022/07/10 13:17:23;;;;;;;1.85;0.70;;;;;;;;;;4811077;29;20034;-63
2022/07/10 13:19:50;;;;;;;0.57;0.47;;;;;;;;;;4800219;29;20066;-62
2022/07/10 13:22:15;;;;;;;1.83;0.57;;;;;;;;;;4797574;29;20038;-62
2022/07/10 13:24:41;;;;;;;5.97;0.50;;;;;;;;;;4814866;29;20510;-64
2022/07/10 13:27:06;;;;;;;2.05;0.73;;;;;;;;;;4813534;29;20514;-62
2022/07/10 13:29:32;;;;;;;0.93;0.50;;;;;;;;;;4811472;29;20102;-63
2022/07/10 13:31:57;;;;;;;1.25;0.52;;;;;;;;;;4811778;29;20076;-63
2022/07/10 13:34:23;;;;;;;3.30;0.70;;;;;;;;;;4814650;29;20039;-63
2022/07/10 13:36:49;;;;;;;1.48;0.60;;;;;;;;;;4811106;29;20428;-64
2022/07/10 13:39:14;;;;;;;8.55;0.95;;;;;;;;;;4808239;29;20042;-63
2022/07/10 13:41:40;;;;;;;3.53;1.08;;;;;;;;;;4811736;29;20107;-62
2022/07/10 13:44:05;;;;;;;2.72;0.70;;;;;;;;;;4811484;29;20022;-62
2022/07/10 13:46:31;;;;;;;2.47;0.88;;;;;;;;;;4812914;29;20052;-62
2022/07/10 13:48:56;;;;;;;3.58;1.02;;;;;;;;;;4809019;29;20026;-63
2022/07/10 13:51:21;;;;;;;1.73;0.60;;;;;;;;;;4813190;29;20031;-63
2022/07/10 13:53:47;;;;;;;0.90;0.52;;;;;;;;;;4810517;29;20526;-61
2022/07/10 13:56:13;;;;;;;1.23;0.60;;;;;;;;;;4813110;29;20377;-62
2022/07/10 13:58:38;;;;;;;3.03;0.80;;;;;;;;;;4810554;29;20037;-61
2022/07/10 14:01:04;;;;;;;1.73;0.65;;;;;;;;;;4805965;29;20099;-64
2022/07/10 14:03:31;;;;;;;1.30;0.63;;;;;;;;;;4803234;29;20458;-63
2022/07/10 14:05:56;;;;;;;2.58;0.70;;;;;;;;;;4809711;29;20038;-62
2022/07/10 14:08:22;;;;;;;1.70;0.70;;;;;;;;;;4808595;29;20033;-61
2022/07/10 14:10:48;;;;;;;2.50;0.70;;;;;;;;;;4810641;29;20479;-62
2022/07/10 14:13:13;;;;;;;0.93;0.73;;;;;;;;;;4808149;29;20467;-64
2022/07/10 14:15:40;;;;;;;2.50;0.85;;;;;;;;;;4809778;29;20026;-62
2022/07/10 14:18:05;;;;;;;0.82;0.50;;;;;;;;;;4809505;29;20049;-63
2022/07/10 14:21:02;;;;;;;1.08;0.52;;;;;;;;;;4808787;29;20038;-61
2022/07/10 14:23:16;;;;;;;0.70;0.50;;;;;;;;;;4807061;29;20053;-61
2022/07/10 14:25:42;;;;;;;2.58;0.47;;;;;;;;;;4810366;29;20069;-62
2022/07/10 14:28:07;;;;;;;1.30;0.30;;;;;;;;;;4812146;29;21144;-63
2022/07/10 14:30:33;;;;;;;2.45;0.63;;;;;;;;;;4806141;29;20035;-64
2022/07/10 14:32:58;;;;;;;2.25;0.60;;;;;;;;;;4810194;29;20061;-64
2022/07/10 14:35:23;;;;;;;2.47;0.73;;;;;;;;;;4811938;29;20066;-62
2022/07/10 14:37:49;;;;;;;2.13;0.63;;;;;;;;;;4795725;29;20054;-61
2022/07/10 14:40:14;;;;;;;1.20;0.52;;;;;;;;;;4812548;29;20037;-63
2022/07/10 14:42:39;;;;;;;2.42;0.60;;;;;;;;;;4808727;29;20031;-65
2022/07/10 14:45:06;;;;;;;1.35;0.40;;;;;;;;;;4807643;29;21003;-63
2022/07/10 14:47:32;;;;;;;1.48;0.70;;;;;;;;;;4812593;29;20483;-63
2022/07/10 14:49:58;;;;;;;3.17;0.70;;;;;;;;;;4813454;29;20102;-62
2022/07/10 14:52:25;;;;;;;0.82;0.30;;;;;;;;;;4813645;29;20450;-62
2022/07/10 14:54:51;;;;;;;2.03;0.60;;;;;;;;;;4809455;29;20065;-63
2022/07/10 14:57:16;;;;;;;11.05;0.70;;;;;;;;;;4810285;29;20242;-64